createdAt,value
2018-11-27T00:00:36.946Z,19.90
2018-11-27T00:03:09.079Z,21.27
2018-11-27T00:05:39.300Z,21.63
2018-11-27T00:08:08.886Z,21.03
2018-11-27T00:10:40.299Z,20.93
2018-11-27T00:13:09.591Z,20.10
2018-11-27T00:15:38.757Z,20.83
2018-11-27T00:18:07.977Z,18.90
2018-11-27T00:20:37.170Z,22.37
2018-11-27T00:23:06.340Z,21.73
2018-11-27T00:25:36.629Z,23.40
2018-11-27T00:28:05.841Z,20.60
2018-11-27T00:30:35.077Z,20.40
2018-11-27T00:33:04.250Z,18.80
2018-11-27T00:35:33.450Z,20.10
2018-11-27T00:38:02.620Z,21.33
2018-11-27T00:40:31.889Z,22.30
2018-11-27T00:43:01.752Z,18.07
2018-11-27T00:45:30.904Z,19.50
2018-11-27T00:48:00.066Z,18.10
2018-11-27T00:50:29.348Z,17.13
2018-11-27T00:52:58.507Z,18.27
2018-11-27T00:55:27.670Z,17.20
2018-11-27T00:57:56.879Z,16.40
2018-11-27T01:00:26.353Z,15.83
2018-11-27T01:02:55.526Z,17.70
2018-11-27T01:05:25.192Z,17.03
2018-11-27T01:07:54.456Z,14.53
2018-11-27T01:10:25.592Z,17.73
2018-11-27T01:12:55.031Z,16.70
2018-11-27T01:15:24.255Z,14.10
2018-11-27T01:17:55.508Z,18.07
2018-11-27T01:20:25.123Z,15.00
2018-11-27T01:22:54.313Z,16.13
2018-11-27T01:25:23.505Z,15.47
2018-11-27T01:27:52.808Z,18.03
2018-11-27T01:30:22.938Z,17.37
2018-11-27T01:32:52.441Z,17.33
2018-11-27T01:35:23.155Z,18.57
2018-11-27T01:37:53.930Z,16.00
2018-11-27T01:40:24.518Z,15.83
2018-11-27T01:42:55.324Z,18.13
2018-11-27T01:45:24.988Z,15.60
2018-11-27T01:47:54.454Z,16.20
2018-11-27T01:50:23.636Z,18.00
2018-11-27T01:52:52.812Z,18.37
2018-11-27T01:55:23.103Z,14.03
2018-11-27T01:57:52.658Z,16.07
2018-11-27T02:00:28.512Z,18.37
2018-11-27T02:02:58.656Z,16.63
2018-11-27T02:05:28.535Z,15.60
2018-11-27T02:07:57.741Z,19.30
2018-11-27T02:10:26.974Z,16.37
2018-11-27T02:13:01.206Z,16.77
2018-11-27T02:15:28.581Z,15.27
2018-11-27T02:17:58.158Z,16.00
2018-11-27T02:20:27.354Z,15.57
2018-11-27T02:22:56.536Z,16.83
2018-11-27T02:25:28.348Z,18.07
2018-11-27T02:27:57.715Z,16.53
2018-11-27T02:30:27.768Z,17.73
2018-11-27T02:32:56.937Z,17.37
2018-11-27T02:35:27.079Z,15.80
2018-11-27T02:37:57.817Z,15.57
2018-11-27T02:40:27.132Z,18.33
2018-11-27T02:42:56.337Z,16.10
2018-11-27T02:45:26.406Z,14.07
2018-11-27T02:47:55.836Z,16.13
2018-11-27T02:50:26.040Z,16.60
2018-11-27T02:52:55.362Z,18.87
2018-11-27T02:55:26.681Z,19.07
2018-11-27T02:57:56.089Z,14.20
2018-11-27T03:00:28.335Z,14.73
2018-11-27T03:02:57.567Z,16.43
2018-11-27T03:05:32.335Z,15.53
2018-11-27T03:08:01.519Z,14.63
2018-11-27T03:10:30.747Z,15.50
2018-11-27T03:13:00.021Z,16.13
2018-11-27T03:15:29.181Z,13.87
2018-11-27T03:17:58.444Z,14.07
2018-11-27T03:20:27.610Z,15.83
2018-11-27T03:22:56.766Z,12.53
2018-11-27T03:25:25.955Z,16.17
2018-11-27T03:27:55.324Z,15.23
2018-11-27T03:30:26.159Z,15.60
2018-11-27T03:32:55.340Z,16.43
2018-11-27T03:35:25.819Z,14.37
2018-11-27T03:37:55.291Z,13.77
2018-11-27T03:40:26.079Z,16.03
2018-11-27T03:42:55.271Z,13.50
2018-11-27T03:45:25.167Z,16.27
2018-11-27T03:47:54.372Z,16.40
2018-11-27T03:50:29.593Z,15.47
2018-11-27T03:52:58.771Z,17.57
2018-11-27T03:55:27.987Z,18.50
2018-11-27T03:57:57.158Z,13.80
2018-11-27T04:00:28.048Z,14.47
2018-11-27T04:03:05.683Z,17.47
2018-11-27T04:05:34.889Z,14.03
2018-11-27T04:08:04.321Z,17.83
2018-11-27T04:10:33.504Z,14.93
2018-11-27T04:13:02.964Z,14.47
2018-11-27T04:15:32.145Z,21.33
2018-11-27T04:18:01.388Z,16.20
2018-11-27T04:20:32.244Z,18.77
2018-11-27T04:22:59.829Z,15.33
2018-11-27T04:25:29.026Z,15.37
2018-11-27T04:27:58.206Z,19.03
2018-11-27T04:30:27.398Z,17.77
2018-11-27T04:32:56.590Z,14.97
2018-11-27T04:35:25.809Z,15.70
2018-11-27T04:37:55.069Z,12.90
2018-11-27T04:40:24.295Z,17.53
2018-11-27T04:42:53.904Z,16.07
2018-11-27T04:45:26.755Z,15.20
2018-11-27T04:47:56.131Z,17.70
2018-11-27T04:50:25.337Z,14.93
2018-11-27T04:52:54.532Z,14.40
2018-11-27T04:55:23.738Z,16.10
2018-11-27T04:57:53.707Z,13.67
2018-11-27T05:00:25.395Z,14.00
2018-11-27T05:02:54.633Z,15.03
2018-11-27T05:05:23.828Z,16.20
2018-11-27T05:07:53.074Z,19.30
2018-11-27T05:10:41.502Z,13.53
2018-11-27T05:13:10.656Z,13.83
2018-11-27T05:15:39.827Z,17.23
2018-11-27T05:18:09.094Z,19.23
2018-11-27T05:20:38.256Z,18.37
2018-11-27T05:23:07.888Z,14.63
2018-11-27T05:25:37.046Z,17.63
2018-11-27T05:28:06.450Z,18.23
2018-11-27T05:30:35.856Z,13.80
2018-11-27T05:33:05.063Z,13.63
2018-11-27T05:35:34.237Z,18.30
2018-11-27T05:38:03.829Z,14.83
2018-11-27T05:40:33.633Z,18.30
2018-11-27T05:43:06.717Z,15.97
2018-11-27T05:45:35.897Z,15.77
2018-11-27T05:48:05.593Z,14.70
2018-11-27T05:50:34.800Z,19.27
2018-11-27T05:53:04.094Z,13.03
2018-11-27T05:55:33.283Z,13.50
2018-11-27T05:58:02.462Z,14.50
2018-11-27T06:00:31.685Z,13.80
2018-11-27T06:03:02.059Z,12.73
2018-11-27T06:05:31.258Z,12.17
2018-11-27T06:08:00.429Z,11.53
2018-11-27T06:10:29.599Z,10.13
2018-11-27T06:12:58.815Z,12.60
2018-11-27T06:15:27.986Z,12.63
2018-11-27T06:17:59.334Z,14.00
2018-11-27T06:20:28.540Z,11.50
2018-11-27T06:22:57.730Z,14.00
2018-11-27T06:25:28.651Z,16.30
2018-11-27T06:28:00.581Z,16.20
2018-11-27T06:30:31.065Z,14.07
2018-11-27T06:33:00.232Z,11.33
2018-11-27T06:35:35.489Z,12.70
2018-11-27T06:38:07.912Z,12.43
2018-11-27T06:40:37.233Z,12.90
2018-11-27T06:43:09.166Z,11.80
2018-11-27T06:45:39.218Z,14.77
2018-11-27T06:48:09.126Z,12.93
2018-11-27T06:50:38.379Z,13.73
2018-11-27T06:53:08.613Z,13.90
2018-11-27T06:55:38.154Z,16.40
2018-11-27T06:58:08.436Z,13.90
2018-11-27T07:00:37.637Z,15.90
2018-11-27T07:03:12.003Z,10.33
2018-11-27T07:05:41.220Z,13.97
2018-11-27T07:08:10.701Z,12.50
2018-11-27T07:10:42.453Z,17.03
2018-11-27T07:13:19.774Z,13.13
2018-11-27T07:15:50.189Z,15.10
2018-11-27T07:18:19.392Z,16.43
2018-11-27T07:20:48.542Z,12.70
2018-11-27T07:23:17.731Z,11.00
2018-11-27T07:25:46.933Z,10.73
2018-11-27T07:28:16.095Z,14.17
2018-11-27T07:30:45.297Z,15.67
2018-11-27T07:33:14.466Z,16.83
2018-11-27T07:35:43.664Z,12.70
2018-11-27T07:38:12.864Z,15.57
2018-11-27T07:40:42.054Z,19.73
2018-11-27T07:43:13.004Z,14.40
2018-11-27T07:45:42.221Z,12.63
2018-11-27T07:48:11.518Z,15.43
2018-11-27T07:50:40.749Z,15.17
2018-11-27T07:53:09.942Z,16.40
2018-11-27T07:55:39.112Z,13.97
2018-11-27T07:58:08.432Z,19.47
2018-11-27T08:00:37.817Z,19.10
2018-11-27T08:03:07.779Z,19.77
2018-11-27T08:05:41.934Z,15.53
2018-11-27T08:08:15.312Z,12.93
2018-11-27T08:10:46.139Z,15.87
2018-11-27T08:13:15.673Z,16.23
2018-11-27T08:15:44.976Z,18.50
2018-11-27T08:18:14.246Z,14.90
2018-11-27T08:20:43.399Z,19.27
2018-11-27T08:23:13.125Z,11.80
2018-11-27T08:25:42.322Z,22.70
2018-11-27T08:28:11.505Z,20.37
2018-11-27T08:30:40.668Z,23.67
2018-11-27T08:33:09.887Z,22.77
2018-11-27T08:35:39.052Z,17.53
2018-11-27T08:38:08.368Z,16.03
2018-11-27T08:40:37.592Z,13.30
2018-11-27T08:43:07.908Z,17.67
2018-11-27T08:45:37.340Z,15.47
2018-11-27T08:48:07.265Z,26.10
2018-11-27T08:50:36.446Z,23.13
2018-11-27T08:53:07.458Z,17.93
2018-11-27T08:55:41.447Z,27.13
2018-11-27T08:58:21.425Z,24.43
2018-11-27T09:00:50.662Z,18.23
2018-11-27T09:03:19.908Z,21.50
2018-11-27T09:05:49.176Z,21.50
2018-11-27T09:08:18.401Z,28.10
2018-11-27T09:10:47.634Z,16.90
2018-11-27T09:13:17.543Z,21.73
2018-11-27T09:15:46.632Z,15.53
2018-11-27T09:18:22.132Z,20.13
2018-11-27T09:20:51.687Z,20.97
2018-11-27T09:23:20.893Z,23.80
2018-11-27T09:25:50.185Z,19.60
2018-11-27T09:28:19.377Z,21.33
2018-11-27T09:30:48.548Z,21.30
2018-11-27T09:33:17.785Z,16.17
2018-11-27T09:35:46.964Z,16.93
2018-11-27T09:38:16.124Z,12.90
2018-11-27T09:40:45.466Z,16.30
2018-11-27T09:43:14.673Z,18.53
2018-11-27T09:45:45.530Z,16.40
2018-11-27T09:48:15.435Z,19.87
2018-11-27T09:50:44.643Z,19.30
2018-11-27T09:53:15.717Z,22.00
2018-11-27T09:55:44.882Z,22.83
2018-11-27T09:58:14.071Z,19.13
2018-11-27T10:00:43.291Z,16.77
2018-11-27T10:03:15.306Z,16.60
2018-11-27T10:05:44.524Z,19.47
2018-11-27T10:08:13.696Z,16.70
2018-11-27T10:10:42.861Z,14.63
2018-11-27T10:13:12.076Z,14.60
2018-11-27T10:15:41.447Z,18.83
2018-11-27T10:18:10.616Z,18.60
2018-11-27T10:20:41.755Z,19.77
2018-11-27T10:23:14.408Z,18.97
2018-11-27T10:25:43.631Z,15.50
2018-11-27T10:28:12.812Z,15.07
2018-11-27T10:30:41.969Z,17.03
2018-11-27T10:33:12.456Z,15.63
2018-11-27T10:35:53.114Z,19.10
2018-11-27T10:38:22.357Z,16.70
2018-11-27T10:40:51.612Z,16.93
2018-11-27T10:43:20.770Z,14.03
2018-11-27T10:45:50.001Z,15.13
2018-11-27T10:48:19.163Z,17.47
2018-11-27T10:50:48.385Z,18.40
2018-11-27T10:53:17.683Z,14.30
2018-11-27T10:55:46.855Z,15.80
2018-11-27T10:58:16.069Z,15.20
2018-11-27T11:00:50.680Z,14.70
2018-11-27T11:03:50.406Z,12.43
2018-11-27T11:06:19.674Z,15.53
2018-11-27T11:08:48.848Z,13.23
2018-11-27T11:11:18.122Z,16.20
2018-11-27T11:13:47.414Z,12.17
2018-11-27T11:16:16.833Z,13.77
2018-11-27T11:18:46.049Z,16.80
2018-11-27T11:21:15.666Z,17.03
2018-11-27T11:23:44.927Z,14.40
2018-11-27T11:26:14.103Z,12.90
2018-11-27T11:28:43.326Z,14.53
2018-11-27T11:31:12.521Z,14.67
2018-11-27T11:33:41.699Z,13.60
2018-11-27T11:36:10.923Z,15.67
2018-11-27T11:38:40.133Z,18.10
2018-11-27T11:41:09.301Z,14.80
2018-11-27T11:43:38.547Z,17.93
2018-11-27T11:46:07.904Z,14.90
2018-11-27T11:48:37.084Z,15.63
2018-11-27T11:51:07.139Z,14.53
2018-11-27T11:53:36.315Z,18.17
2018-11-27T11:56:06.910Z,17.97
2018-11-27T11:58:36.853Z,17.17
2018-11-27T12:01:06.430Z,13.13
2018-11-27T12:03:35.618Z,17.37
2018-11-27T12:06:04.903Z,15.00
2018-11-27T12:08:34.049Z,15.40
2018-11-27T12:11:03.224Z,14.60
2018-11-27T12:13:32.495Z,17.00
2018-11-27T12:16:01.665Z,10.20
2018-11-27T12:18:31.172Z,14.83
2018-11-27T12:21:00.511Z,16.90
2018-11-27T12:23:29.695Z,16.13
2018-11-27T12:25:58.894Z,16.73
2018-11-27T12:28:28.201Z,15.63
2018-11-27T12:30:57.442Z,17.10
2018-11-27T12:33:26.623Z,18.40
2018-11-27T12:35:55.837Z,18.20
2018-11-27T12:38:25.035Z,15.20
2018-11-27T12:40:54.230Z,14.70
2018-11-27T12:43:23.638Z,17.57
2018-11-27T12:45:52.812Z,15.90
2018-11-27T12:48:21.955Z,14.37
2018-11-27T12:50:51.149Z,9.70
2018-11-27T12:53:20.363Z,13.93
2018-11-27T12:55:50.984Z,11.70
2018-11-27T12:58:20.303Z,14.97
2018-11-27T13:00:49.481Z,15.60
2018-11-27T13:03:19.196Z,14.13
2018-11-27T13:05:48.608Z,9.77
2018-11-27T13:08:20.735Z,10.20
2018-11-27T13:10:49.895Z,11.47
2018-11-27T13:13:19.059Z,10.23
2018-11-27T13:15:48.432Z,10.60
2018-11-27T13:18:18.156Z,12.20
2018-11-27T13:20:47.409Z,9.90
2018-11-27T13:23:16.577Z,12.07
2018-11-27T13:25:45.884Z,10.10
2018-11-27T13:28:15.718Z,12.83
2018-11-27T13:30:54.873Z,14.70
2018-11-27T13:33:32.580Z,14.37
2018-11-27T13:36:01.859Z,14.03
2018-11-27T13:38:31.073Z,19.67
2018-11-27T13:41:00.258Z,22.60
2018-11-27T13:43:30.454Z,19.30
2018-11-27T13:46:01.064Z,13.63
2018-11-27T13:48:30.228Z,25.40
2018-11-27T13:50:59.428Z,28.17
2018-11-27T13:53:28.615Z,22.27
2018-11-27T13:55:57.848Z,21.20
2018-11-27T13:58:27.013Z,25.73
2018-11-27T14:00:56.252Z,28.03
2018-11-27T14:03:25.460Z,21.47
2018-11-27T14:05:54.705Z,33.43
2018-11-27T14:08:23.991Z,21.33
2018-11-27T14:10:53.187Z,20.70
2018-11-27T14:13:22.435Z,24.10
2018-11-27T14:15:51.609Z,32.73
2018-11-27T14:18:20.804Z,29.70
2018-11-27T14:20:50.029Z,15.60
2018-11-27T14:23:19.223Z,27.20
2018-11-27T14:25:48.439Z,28.50
2018-11-27T14:28:17.651Z,21.30
2018-11-27T14:30:46.823Z,21.70
2018-11-27T14:33:16.043Z,24.37
2018-11-27T14:35:45.232Z,22.53
2018-11-27T14:38:14.420Z,30.53
2018-11-27T14:40:43.601Z,27.27
2018-11-27T14:43:12.930Z,27.97
2018-11-27T14:45:42.092Z,32.43
2018-11-27T14:48:12.002Z,32.20
2018-11-27T14:50:41.171Z,31.57
2018-11-27T14:53:10.366Z,31.40
2018-11-27T14:55:39.693Z,29.77
2018-11-27T14:58:08.873Z,32.80
2018-11-27T15:00:38.054Z,31.53
2018-11-27T15:03:07.512Z,30.03
2018-11-27T15:05:38.319Z,27.53
2018-11-27T15:08:10.821Z,27.37
2018-11-27T15:10:40.012Z,16.33
2018-11-27T15:13:10.579Z,15.03
2018-11-27T15:15:39.757Z,14.20
2018-11-27T15:18:09.283Z,15.37
2018-11-27T15:20:38.476Z,15.73
2018-11-27T15:23:07.676Z,16.03
2018-11-27T15:25:37.508Z,27.23
2018-11-27T15:28:06.680Z,20.37
2018-11-27T15:30:38.637Z,28.43
2018-11-27T15:33:08.203Z,29.27
2018-11-27T15:35:37.996Z,34.77
2018-11-27T15:38:07.917Z,33.17
2018-11-27T15:40:38.924Z,32.07
2018-11-27T15:43:08.387Z,35.00
2018-11-27T15:45:37.564Z,26.53
2018-11-27T15:48:08.787Z,25.33
2018-11-27T15:50:38.092Z,26.70
2018-11-27T15:53:07.429Z,33.37
2018-11-27T15:55:39.024Z,34.03
2018-11-27T15:58:14.761Z,37.03
2018-11-27T16:00:44.764Z,35.97
2018-11-27T16:03:13.928Z,35.23
2018-11-27T16:05:46.958Z,35.57
2018-11-27T16:08:16.462Z,34.00
2018-11-27T16:10:45.653Z,38.60
2018-11-27T16:13:14.928Z,39.63
2018-11-27T16:15:44.110Z,23.13
2018-11-27T16:18:13.323Z,26.90
2018-11-27T16:20:42.520Z,37.30
2018-11-27T16:23:11.796Z,34.73
2018-11-27T16:25:41.049Z,33.93
2018-11-27T16:28:10.216Z,36.90
2018-11-27T16:30:39.403Z,35.63
2018-11-27T16:33:08.751Z,24.67
2018-11-27T16:35:38.141Z,39.03
2018-11-27T16:38:07.977Z,28.80
2018-11-27T16:40:39.451Z,36.40
2018-11-27T16:43:09.232Z,28.97
2018-11-27T16:45:38.416Z,32.33
2018-11-27T16:48:07.731Z,34.20
2018-11-27T16:50:37.114Z,36.47
2018-11-27T16:53:07.056Z,30.20
2018-11-27T16:55:36.243Z,33.57
2018-11-27T16:58:05.662Z,31.30
2018-11-27T17:00:35.352Z,34.37
2018-11-27T17:03:06.528Z,33.37
2018-11-27T17:05:40.992Z,32.53
2018-11-27T17:08:10.448Z,31.17
2018-11-27T17:10:42.723Z,28.50
2018-11-27T17:13:13.407Z,31.03
2018-11-27T17:15:42.635Z,29.87
2018-11-27T17:18:15.512Z,31.23
2018-11-27T17:20:46.175Z,31.97
2018-11-27T17:23:17.419Z,27.93
2018-11-27T17:25:46.655Z,27.70
2018-11-27T17:28:20.971Z,21.37
2018-11-27T17:31:21.108Z,31.30
2018-11-27T17:34:06.508Z,32.40
2018-11-27T17:36:36.875Z,31.37
2018-11-27T17:39:14.972Z,32.20
2018-11-27T17:41:44.261Z,32.13
2018-11-27T17:44:18.603Z,28.10
2018-11-27T17:46:47.793Z,32.30
2018-11-27T17:49:17.023Z,30.00
2018-11-27T17:51:46.303Z,33.43
2018-11-27T17:54:15.467Z,31.00
2018-11-27T17:56:44.716Z,35.53
2018-11-27T17:59:13.912Z,35.30
2018-11-27T18:01:43.082Z,33.83
2018-11-27T18:04:12.305Z,37.63
2018-11-27T18:06:41.538Z,29.80
2018-11-27T18:09:10.722Z,25.73
2018-11-27T18:11:39.892Z,19.07
2018-11-27T18:14:09.111Z,26.50
2018-11-27T18:16:38.281Z,24.03
2018-11-27T18:19:07.888Z,25.83
2018-11-27T18:21:37.442Z,21.77
2018-11-27T18:24:06.711Z,18.93
2018-11-27T18:26:35.990Z,19.93
2018-11-27T18:29:05.902Z,22.50
2018-11-27T18:31:36.332Z,21.90
2018-11-27T18:34:05.834Z,21.30
2018-11-27T18:36:35.020Z,15.17
2018-11-27T18:39:06.767Z,20.23
2018-11-27T18:41:37.624Z,19.43
2018-11-27T18:44:07.468Z,18.43
2018-11-27T18:46:37.711Z,16.40
2018-11-27T18:49:07.272Z,15.40
2018-11-27T18:51:36.464Z,17.77
2018-11-27T18:54:06.263Z,19.37
2018-11-27T18:56:35.517Z,17.13
2018-11-27T18:59:04.840Z,21.20
2018-11-27T19:01:34.057Z,22.50
2018-11-27T19:04:03.270Z,23.63
2018-11-27T19:06:32.791Z,18.77
2018-11-27T19:09:02.011Z,19.87
2018-11-27T19:11:31.603Z,20.57
2018-11-27T19:14:00.793Z,27.00
2018-11-27T19:16:30.021Z,27.20
2018-11-27T19:19:00.200Z,28.23
2018-11-27T19:21:29.417Z,31.67
2018-11-27T19:23:58.912Z,27.17
2018-11-27T19:26:28.104Z,27.93
2018-11-27T19:28:57.384Z,27.70
2018-11-27T19:31:26.684Z,26.60
2018-11-27T19:33:55.915Z,31.00
2018-11-27T19:36:25.784Z,29.90
2018-11-27T19:38:55.220Z,23.87
2018-11-27T19:41:24.513Z,32.80
2018-11-27T19:43:54.000Z,32.67
2018-11-27T19:46:23.401Z,38.00
2018-11-27T19:48:53.657Z,19.40
2018-11-27T19:51:22.655Z,31.53
2018-11-27T19:53:53.044Z,37.73
2018-11-27T19:56:23.133Z,36.93
2018-11-27T19:58:52.516Z,39.67
2018-11-27T20:01:22.752Z,39.13
2018-11-27T20:03:53.240Z,39.43
2018-11-27T20:06:23.105Z,41.83
2018-11-27T20:08:52.703Z,42.30
2018-11-27T20:11:21.980Z,40.03
2018-11-27T20:13:51.332Z,41.63
2018-11-27T20:16:21.443Z,42.47
2018-11-27T20:18:51.710Z,42.27
2018-11-27T20:21:21.718Z,42.23
2018-11-27T20:23:52.580Z,41.60
2018-11-27T20:26:22.858Z,46.03
2018-11-27T20:28:52.833Z,40.20
2018-11-27T20:31:22.767Z,44.10
2018-11-27T20:33:52.638Z,30.73
2018-11-27T20:36:22.898Z,42.57
2018-11-27T20:38:52.481Z,42.43
2018-11-27T20:41:22.604Z,43.67
2018-11-27T20:43:52.313Z,32.87
2018-11-27T20:46:21.635Z,28.93
2018-11-27T20:48:51.763Z,33.50
2018-11-27T20:51:21.771Z,44.20
2018-11-27T20:53:53.460Z,41.70
2018-11-27T20:56:24.129Z,38.10
2018-11-27T20:58:54.282Z,26.97
2018-11-27T21:01:23.689Z,35.80
2018-11-27T21:03:53.002Z,39.77
2018-11-27T21:06:22.814Z,42.57
2018-11-27T21:08:52.292Z,43.87
2018-11-27T21:11:21.696Z,43.70
2018-11-27T21:13:51.384Z,40.30
2018-11-27T21:16:21.480Z,44.10
2018-11-27T21:18:50.940Z,44.53
2018-11-27T21:21:20.327Z,43.60
2018-11-27T21:23:50.243Z,46.60
2018-11-27T21:26:20.002Z,44.93
2018-11-27T21:28:49.564Z,45.60
2018-11-27T21:31:23.976Z,43.43
2018-11-27T21:33:48.189Z,44.37
2018-11-27T21:36:18.327Z,44.90
2018-11-27T21:38:47.731Z,32.57
2018-11-27T21:41:17.051Z,41.97
2018-11-27T21:43:46.287Z,41.70
2018-11-27T21:46:15.883Z,44.47
2018-11-27T21:48:45.170Z,48.43
2018-11-27T21:51:14.395Z,46.97
2018-11-27T21:53:43.664Z,44.33
2018-11-27T21:56:12.886Z,46.20
2018-11-27T21:58:42.187Z,42.10
2018-11-27T22:01:11.376Z,43.00
2018-11-27T22:03:40.591Z,42.53
2018-11-27T22:06:09.759Z,42.80
2018-11-27T22:08:47.020Z,49.30
2018-11-27T22:11:16.290Z,47.27
2018-11-27T22:13:46.831Z,49.40
2018-11-27T22:16:16.013Z,47.00
2018-11-27T22:18:45.188Z,43.37
2018-11-27T22:21:14.441Z,42.17
2018-11-27T22:23:43.631Z,41.40
2018-11-27T22:26:12.838Z,49.57
2018-11-27T22:28:42.006Z,30.17
2018-11-27T22:31:11.205Z,28.70
2018-11-27T22:33:40.377Z,50.30
2018-11-27T22:36:09.573Z,41.27
2018-11-27T22:38:38.802Z,43.60
2018-11-27T22:41:08.017Z,50.00
2018-11-27T22:43:37.192Z,40.47
2018-11-27T22:46:06.851Z,48.37
2018-11-27T22:48:36.820Z,42.43
2018-11-27T22:51:06.189Z,39.90
2018-11-27T22:53:36.287Z,49.20
2018-11-27T22:56:05.709Z,46.60
2018-11-27T22:58:34.916Z,49.80
2018-11-27T23:01:04.128Z,34.70
2018-11-27T23:03:33.347Z,32.10
2018-11-27T23:06:02.536Z,43.83
2018-11-27T23:08:31.758Z,49.10
2018-11-27T23:11:00.973Z,44.50
2018-11-27T23:13:30.142Z,43.73
2018-11-27T23:15:59.317Z,35.73
2018-11-27T23:18:28.480Z,45.77
2018-11-27T23:20:57.677Z,44.70
2018-11-27T23:23:26.899Z,46.13
2018-11-27T23:25:56.049Z,46.60
2018-11-27T23:28:25.349Z,33.60
2018-11-27T23:30:54.543Z,38.00
2018-11-27T23:33:23.722Z,44.13
2018-11-27T23:35:53.067Z,46.77
2018-11-27T23:38:22.246Z,43.60
2018-11-27T23:40:51.407Z,28.00
2018-11-27T23:43:20.593Z,34.43
2018-11-27T23:45:49.745Z,28.13
2018-11-27T23:48:18.972Z,43.90
2018-11-27T23:50:48.217Z,47.10
2018-11-27T23:53:17.389Z,45.13
2018-11-27T23:55:46.587Z,40.57
2018-11-27T23:58:15.784Z,43.97
